createdAt,value
2023-04-17T00:01:05.992Z,15.35
2023-04-17T00:03:33.665Z,16.38
2023-04-17T00:06:00.698Z,16.00
2023-04-17T00:08:28.218Z,15.88
2023-04-17T00:11:06.544Z,16.35
2023-04-17T00:13:36.560Z,16.15
2023-04-17T00:16:03.585Z,15.40
2023-04-17T00:18:31.186Z,15.52
2023-04-17T00:20:58.171Z,15.63
2023-04-17T00:23:26.593Z,15.63
2023-04-17T00:25:53.658Z,16.48
2023-04-17T00:28:21.162Z,15.93
2023-04-17T00:30:48.268Z,15.52
2023-04-17T00:33:15.785Z,15.70
2023-04-17T00:35:42.956Z,15.30
2023-04-17T00:38:10.266Z,15.10
2023-04-17T00:40:37.713Z,16.23
2023-04-17T00:43:07.023Z,15.02
2023-04-17T00:45:34.807Z,15.50
2023-04-17T00:48:04.802Z,15.70
2023-04-17T00:50:32.427Z,15.13
2023-04-17T00:53:00.934Z,15.50
2023-04-17T00:55:30.824Z,15.23
2023-04-17T00:57:58.850Z,16.15
2023-04-17T01:00:26.048Z,15.38
2023-04-17T01:02:53.769Z,15.80
2023-04-17T01:05:21.218Z,15.98
2023-04-17T01:07:48.839Z,15.90
2023-04-17T01:10:16.111Z,15.63
2023-04-17T01:12:46.804Z,16.25
2023-04-17T01:15:14.201Z,15.13
2023-04-17T01:17:41.795Z,15.65
2023-04-17T01:20:10.949Z,15.05
2023-04-17T01:22:38.636Z,16.02
2023-04-17T01:25:06.140Z,15.32
2023-04-17T01:27:36.578Z,14.98
2023-04-17T01:30:04.028Z,15.63
2023-04-17T01:35:02.562Z,14.88
2023-04-17T01:37:30.145Z,16.58
2023-04-17T01:39:58.752Z,14.50
2023-04-17T01:42:26.821Z,15.98
2023-04-17T01:44:54.183Z,15.57
2023-04-17T01:47:21.518Z,15.77
2023-04-17T01:49:48.714Z,16.73
2023-04-17T01:52:16.859Z,15.43
2023-04-17T01:54:43.859Z,14.88
2023-04-17T01:57:11.192Z,15.30
2023-04-17T01:59:38.197Z,15.10
2023-04-17T02:02:05.794Z,14.88
2023-04-17T02:04:33.190Z,15.35
2023-04-17T02:07:00.481Z,15.13
2023-04-17T02:09:27.931Z,14.68
2023-04-17T02:11:56.941Z,14.68
2023-04-17T02:14:25.030Z,15.32
2023-04-17T02:16:53.963Z,15.82
2023-04-17T02:19:21.443Z,16.13
2023-04-17T02:21:48.985Z,16.90
2023-04-17T02:24:15.986Z,19.70
2023-04-17T02:26:43.530Z,19.30
2023-04-17T02:29:13.176Z,18.63
2023-04-17T02:31:43.984Z,17.92
2023-04-17T02:34:11.717Z,17.38
2023-04-17T02:36:40.386Z,16.88
2023-04-17T02:39:08.480Z,17.20
2023-04-17T02:41:35.794Z,16.10
2023-04-17T02:44:05.447Z,15.88
2023-04-17T02:46:33.251Z,16.67
2023-04-17T02:49:00.518Z,18.15
2023-04-17T02:51:28.144Z,17.75
2023-04-17T02:53:55.347Z,16.55
2023-04-17T02:56:22.789Z,16.25
2023-04-17T02:58:50.264Z,17.08
2023-04-17T03:01:17.597Z,16.45
2023-04-17T03:03:47.459Z,16.75
2023-04-17T03:06:15.883Z,15.93
2023-04-17T03:08:43.578Z,15.30
2023-04-17T03:11:10.902Z,16.55
2023-04-17T03:13:37.857Z,17.15
2023-04-17T03:16:05.785Z,17.33
2023-04-17T03:18:35.997Z,17.52
2023-04-17T03:21:03.572Z,16.92
2023-04-17T03:23:30.487Z,16.98
2023-04-17T03:25:57.985Z,17.33
2023-04-17T03:28:26.058Z,16.75
2023-04-17T03:30:54.970Z,16.95
2023-04-17T03:33:22.359Z,15.55
2023-04-17T03:35:49.597Z,16.77
2023-04-17T03:38:17.341Z,16.20
2023-04-17T03:40:45.266Z,16.48
2023-04-17T03:43:13.140Z,16.25
2023-04-17T03:45:40.540Z,16.10
2023-04-17T03:48:07.604Z,17.13
2023-04-17T03:50:36.179Z,16.20
2023-04-17T03:53:03.176Z,16.63
2023-04-17T03:55:31.675Z,17.63
2023-04-17T03:57:58.883Z,16.05
2023-04-17T04:00:31.755Z,17.10
2023-04-17T04:03:05.417Z,17.10
2023-04-17T04:05:39.639Z,15.65
2023-04-17T04:08:08.544Z,16.42
2023-04-17T04:10:45.183Z,16.27
2023-04-17T04:13:16.829Z,16.90
2023-04-17T04:15:50.718Z,15.13
2023-04-17T04:18:20.110Z,15.15
2023-04-17T04:20:48.410Z,16.73
2023-04-17T04:23:21.567Z,15.73
2023-04-17T04:25:49.782Z,15.30
2023-04-17T04:28:34.046Z,15.35
2023-04-17T04:31:02.923Z,17.35
2023-04-17T04:33:36.169Z,14.60
2023-04-17T04:36:03.724Z,14.13
2023-04-17T04:38:33.306Z,15.52
2023-04-17T04:41:20.080Z,14.75
2023-04-17T04:43:47.142Z,15.55
2023-04-17T04:46:14.700Z,15.57
2023-04-17T04:48:45.794Z,15.52
2023-04-17T04:51:13.354Z,16.58
2023-04-17T04:53:41.256Z,14.88
2023-04-17T04:56:08.853Z,15.20
2023-04-17T04:58:38.735Z,14.82
2023-04-17T05:01:07.029Z,14.38
2023-04-17T05:03:41.166Z,14.27
2023-04-17T05:06:11.422Z,14.70
2023-04-17T05:08:43.188Z,15.98
2023-04-17T05:11:12.673Z,15.00
2023-04-17T05:13:39.795Z,15.43
2023-04-17T05:16:13.040Z,15.55
2023-04-17T05:18:40.334Z,15.13
2023-04-17T05:21:10.975Z,16.05
2023-04-17T05:23:39.989Z,15.20
2023-04-17T05:26:07.444Z,15.57
2023-04-17T05:28:34.614Z,17.45
2023-04-17T05:31:02.295Z,15.90
2023-04-17T05:33:34.653Z,15.63
2023-04-17T05:36:03.202Z,16.20
2023-04-17T05:38:34.172Z,16.75
2023-04-17T05:41:03.168Z,15.82
2023-04-17T05:43:30.528Z,16.73
2023-04-17T05:45:58.113Z,16.33
2023-04-17T05:48:25.462Z,16.33
2023-04-17T05:50:53.587Z,15.57
2023-04-17T05:53:20.783Z,16.13
2023-04-17T05:55:55.896Z,16.33
2023-04-17T05:58:24.773Z,15.55
2023-04-17T06:00:57.019Z,15.50
2023-04-17T06:03:27.194Z,15.27
2023-04-17T06:06:08.852Z,17.25
2023-04-17T06:08:36.260Z,15.70
2023-04-17T06:11:05.635Z,16.25
2023-04-17T06:13:33.736Z,17.13
2023-04-17T06:16:01.427Z,17.00
2023-04-17T06:18:28.632Z,17.63
2023-04-17T06:20:56.140Z,15.60
2023-04-17T06:23:23.873Z,16.85
2023-04-17T06:25:51.470Z,15.50
2023-04-17T06:28:19.729Z,16.90
2023-04-17T06:30:50.784Z,15.98
2023-04-17T06:33:19.050Z,17.02
2023-04-17T06:35:46.551Z,15.10
2023-04-17T06:38:22.226Z,15.23
2023-04-17T06:40:51.403Z,14.70
2023-04-17T06:43:19.832Z,15.88
2023-04-17T06:45:48.080Z,15.48
2023-04-17T06:48:15.537Z,14.95
2023-04-17T06:50:43.786Z,14.90
2023-04-17T06:53:13.384Z,17.05
2023-04-17T06:55:40.613Z,16.13
2023-04-17T06:58:09.452Z,16.33
2023-04-17T07:00:36.726Z,16.95
2023-04-17T07:03:05.297Z,16.40
2023-04-17T07:05:32.596Z,15.27
2023-04-17T07:07:59.746Z,16.65
2023-04-17T07:10:27.252Z,17.08
2023-04-17T07:12:55.174Z,16.52
2023-04-17T07:15:22.919Z,16.60
2023-04-17T07:17:49.912Z,16.35
2023-04-17T07:20:18.047Z,16.27
2023-04-17T07:22:44.979Z,16.30
2023-04-17T07:25:12.713Z,16.45
2023-04-17T07:27:39.639Z,17.17
2023-04-17T07:30:08.668Z,15.07
2023-04-17T07:32:36.291Z,15.27
2023-04-17T07:35:04.630Z,14.15
2023-04-17T07:37:31.914Z,14.43
2023-04-17T07:39:59.477Z,15.32
2023-04-17T07:42:26.443Z,15.07
2023-04-17T07:44:54.154Z,14.10
2023-04-17T07:47:21.200Z,13.45
2023-04-17T07:49:49.229Z,14.40
2023-04-17T07:52:18.179Z,13.75
2023-04-17T07:54:45.729Z,12.38
2023-04-17T07:57:14.992Z,13.77
2023-04-17T07:59:42.640Z,13.27
2023-04-17T08:02:10.527Z,12.70
2023-04-17T08:04:40.341Z,13.55
2023-04-17T08:07:10.624Z,13.30
2023-04-17T08:09:40.243Z,12.15
2023-04-17T08:12:08.860Z,12.75
2023-04-17T08:14:36.338Z,11.85
2023-04-17T08:17:04.161Z,13.07
2023-04-17T08:19:32.128Z,13.40
2023-04-17T08:22:04.501Z,13.27
2023-04-17T08:24:32.152Z,12.70
2023-04-17T08:26:59.034Z,13.63
2023-04-17T08:29:26.915Z,12.80
2023-04-17T08:32:12.692Z,12.95
2023-04-17T08:34:42.343Z,13.15
2023-04-17T08:37:09.143Z,12.68
2023-04-17T08:40:06.190Z,13.07
2023-04-17T08:42:37.465Z,14.07
2023-04-17T08:45:14.850Z,14.40
2023-04-17T08:47:43.306Z,12.98
2023-04-17T08:50:21.987Z,12.85
2023-04-17T08:52:51.092Z,13.02
2023-04-17T08:55:21.505Z,12.85
2023-04-17T08:57:59.475Z,12.45
2023-04-17T09:00:37.442Z,12.90
2023-04-17T09:03:09.030Z,13.30
2023-04-17T09:05:37.569Z,13.45
2023-04-17T09:08:17.951Z,11.02
2023-04-17T09:10:50.326Z,11.40
2023-04-17T09:13:22.308Z,11.68
2023-04-17T09:16:07.638Z,11.70
2023-04-17T09:18:35.996Z,11.20
2023-04-17T09:21:04.560Z,12.40
2023-04-17T09:23:46.684Z,11.82
2023-04-17T09:26:16.163Z,12.35
2023-04-17T09:29:12.174Z,10.68
2023-04-17T09:31:43.386Z,11.18
2023-04-17T09:34:12.386Z,10.48
2023-04-17T09:36:41.821Z,9.15
2023-04-17T09:39:26.419Z,10.65
2023-04-17T09:42:03.998Z,10.32
2023-04-17T09:44:32.094Z,11.20
2023-04-17T09:47:01.374Z,10.88
2023-04-17T09:49:49.753Z,10.85
2023-04-17T09:52:17.836Z,10.15
2023-04-17T09:54:47.521Z,11.10
2023-04-17T09:57:15.847Z,10.20
2023-04-17T09:59:45.690Z,10.75
2023-04-17T10:02:15.942Z,10.50
2023-04-17T10:04:45.638Z,12.25
2023-04-17T10:07:13.944Z,10.82
2023-04-17T10:09:42.248Z,10.93
2023-04-17T10:12:15.762Z,10.23
2023-04-17T10:14:49.933Z,10.60
2023-04-17T10:17:29.095Z,11.35
2023-04-17T10:19:56.755Z,10.35
2023-04-17T10:22:24.904Z,9.95
2023-04-17T10:25:13.555Z,11.43
2023-04-17T10:27:41.655Z,10.68
2023-04-17T10:30:12.679Z,10.43
2023-04-17T10:32:42.802Z,9.55
2023-04-17T10:35:16.481Z,9.93
2023-04-17T10:38:18.605Z,10.18
2023-04-17T10:40:46.107Z,8.85
2023-04-17T10:43:14.817Z,10.48
2023-04-17T10:46:09.949Z,9.88
2023-04-17T10:48:39.087Z,10.82
2023-04-17T10:51:21.645Z,10.55
2023-04-17T10:53:59.988Z,10.00
2023-04-17T10:56:38.812Z,9.07
2023-04-17T10:59:11.807Z,9.70
2023-04-17T11:01:48.272Z,9.73
2023-04-17T11:04:30.213Z,9.50
2023-04-17T11:09:28.037Z,9.10
2023-04-17T11:11:59.020Z,8.40
2023-04-17T11:14:26.731Z,9.07
2023-04-17T11:16:53.740Z,8.77
2023-04-17T11:19:23.555Z,8.73
2023-04-17T11:21:53.698Z,7.80
2023-04-17T11:24:30.054Z,9.02
2023-04-17T11:27:00.113Z,8.48
2023-04-17T11:29:28.371Z,9.23
2023-04-17T11:31:57.554Z,8.88
2023-04-17T11:34:26.726Z,8.23
2023-04-17T11:36:57.253Z,8.82
2023-04-17T11:39:28.004Z,7.10
2023-04-17T11:41:57.193Z,7.70
2023-04-17T11:44:25.906Z,7.53
2023-04-17T11:46:55.181Z,7.78
2023-04-17T11:49:33.386Z,7.28
2023-04-17T11:52:02.161Z,7.13
2023-04-17T11:54:37.732Z,7.55
2023-04-17T11:57:14.861Z,7.57
2023-04-17T11:59:42.865Z,7.68
2023-04-17T12:02:10.432Z,7.28
2023-04-17T12:04:40.143Z,6.55
2023-04-17T12:07:09.107Z,7.35
2023-04-17T12:09:36.627Z,7.32
2023-04-17T12:12:08.039Z,7.85
2023-04-17T12:14:36.169Z,6.80
2023-04-17T12:17:03.369Z,7.28
2023-04-17T12:19:32.058Z,6.45
2023-04-17T12:21:59.972Z,6.78
2023-04-17T12:24:27.553Z,6.35
2023-04-17T12:26:54.739Z,6.43
2023-04-17T12:29:36.183Z,7.18
2023-04-17T12:32:11.055Z,7.10
2023-04-17T12:34:38.513Z,6.40
2023-04-17T12:37:05.667Z,7.53
2023-04-17T12:39:33.382Z,6.75
2023-04-17T12:42:00.391Z,7.07
2023-04-17T12:44:27.783Z,7.25
2023-04-17T12:46:54.965Z,7.15
2023-04-17T12:49:23.654Z,6.63
2023-04-17T12:51:51.509Z,6.68
2023-04-17T12:54:19.327Z,6.75
2023-04-17T12:56:46.553Z,6.75
2023-04-17T12:59:13.774Z,6.10
2023-04-17T13:01:40.873Z,5.72
2023-04-17T13:04:08.633Z,6.70
2023-04-17T13:06:36.331Z,6.07
2023-04-17T13:09:04.679Z,5.75
2023-04-17T13:11:32.384Z,6.03
2023-04-17T13:13:59.981Z,6.40
2023-04-17T13:16:27.439Z,5.43
2023-04-17T13:18:54.759Z,5.70
2023-04-17T13:21:22.067Z,5.43
2023-04-17T13:23:49.658Z,5.05
2023-04-17T13:26:16.536Z,4.80
2023-04-17T13:28:43.924Z,4.63
2023-04-17T13:31:11.081Z,5.45
2023-04-17T13:33:40.554Z,4.85
2023-04-17T13:36:07.717Z,4.70
2023-04-17T13:38:34.883Z,4.65
2023-04-17T13:41:01.989Z,5.10
2023-04-17T13:43:29.613Z,6.40
2023-04-17T13:45:57.010Z,4.80
2023-04-17T13:48:24.879Z,5.03
2023-04-17T13:50:52.060Z,5.40
2023-04-17T13:53:19.970Z,4.70
2023-04-17T13:55:46.979Z,4.80
2023-04-17T13:58:14.567Z,5.10
2023-04-17T14:00:41.481Z,4.80
2023-04-17T14:03:09.173Z,4.93
2023-04-17T14:05:36.408Z,5.25
2023-04-17T14:08:04.250Z,4.88
2023-04-17T14:10:31.305Z,5.28
2023-04-17T14:12:59.067Z,5.05
2023-04-17T14:15:26.065Z,4.75
2023-04-17T14:17:53.436Z,4.78
2023-04-17T14:20:20.734Z,4.57
2023-04-17T14:22:48.275Z,4.78
2023-04-17T14:25:16.034Z,4.80
2023-04-17T14:27:44.610Z,4.72
2023-04-17T14:30:11.766Z,4.10
2023-04-17T14:32:39.699Z,4.65
2023-04-17T14:35:07.047Z,5.40
2023-04-17T14:37:34.607Z,5.43
2023-04-17T14:40:01.725Z,5.45
2023-04-17T14:42:29.077Z,5.53
2023-04-17T14:44:56.126Z,5.45
2023-04-17T14:47:23.414Z,5.13
2023-04-17T14:49:51.074Z,4.78
2023-04-17T14:52:18.460Z,5.63
2023-04-17T14:54:46.189Z,5.80
2023-04-17T14:57:13.870Z,5.35
2023-04-17T14:59:40.839Z,5.00
2023-04-17T15:02:08.405Z,5.43
2023-04-17T15:04:35.559Z,5.22
2023-04-17T15:07:03.224Z,5.78
2023-04-17T15:09:30.817Z,5.20
2023-04-17T15:11:58.192Z,5.93
2023-04-17T15:14:25.899Z,5.60
2023-04-17T15:16:54.393Z,5.43
2023-04-17T15:19:21.448Z,5.35
2023-04-17T15:21:48.731Z,5.45
2023-04-17T15:24:15.885Z,5.40
2023-04-17T15:26:44.993Z,5.68
2023-04-17T15:29:12.435Z,5.20
2023-04-17T15:31:40.426Z,5.50
2023-04-17T15:34:07.453Z,5.20
2023-04-17T15:36:34.874Z,5.55
2023-04-17T15:39:02.606Z,5.32
2023-04-17T15:41:30.352Z,5.55
2023-04-17T15:43:57.494Z,5.50
2023-04-17T15:46:24.767Z,5.05
2023-04-17T15:49:04.860Z,4.97
2023-04-17T15:51:36.071Z,5.43
2023-04-17T15:54:03.624Z,5.38
2023-04-17T15:56:31.090Z,5.82
2023-04-17T15:58:57.992Z,5.47
2023-04-17T16:01:26.680Z,5.07
2023-04-17T16:03:54.034Z,5.55
2023-04-17T16:06:21.857Z,5.38
2023-04-17T16:08:49.177Z,5.43
2023-04-17T16:11:16.634Z,5.13
2023-04-17T16:13:43.671Z,5.55
2023-04-17T16:16:10.946Z,5.20
2023-04-17T16:18:37.913Z,5.90
2023-04-17T16:21:06.313Z,5.30
2023-04-17T16:23:33.536Z,5.32
2023-04-17T16:26:00.850Z,5.75
2023-04-17T16:28:27.993Z,5.93
2023-04-17T16:30:55.539Z,5.70
2023-04-17T16:33:22.445Z,5.80
2023-04-17T16:35:50.000Z,5.45
2023-04-17T16:38:17.042Z,5.82
2023-04-17T16:40:44.510Z,5.88
2023-04-17T16:43:11.812Z,5.75
2023-04-17T16:45:39.483Z,5.25
2023-04-17T16:48:09.006Z,5.30
2023-04-17T16:50:36.508Z,4.80
2023-04-17T16:53:03.429Z,5.20
2023-04-17T16:55:30.905Z,5.53
2023-04-17T16:58:00.085Z,4.65
2023-04-17T17:00:27.974Z,4.55
2023-04-17T17:02:55.500Z,4.32
2023-04-17T17:05:23.011Z,5.07
2023-04-17T17:07:50.026Z,4.43
2023-04-17T17:10:17.456Z,4.55
2023-04-17T17:12:44.705Z,4.97
2023-04-17T17:15:12.269Z,4.80
2023-04-17T17:17:39.373Z,4.70
2023-04-17T17:20:07.584Z,4.72
2023-04-17T17:22:34.802Z,4.70
2023-04-17T17:25:04.253Z,4.57
2023-04-17T17:27:31.502Z,4.28
2023-04-17T17:30:00.480Z,4.80
2023-04-17T17:32:28.121Z,4.47
2023-04-17T17:34:55.523Z,4.68
2023-04-17T17:37:23.297Z,4.97
2023-04-17T17:39:50.447Z,4.75
2023-04-17T17:42:17.656Z,4.25
2023-04-17T17:44:44.900Z,5.38
2023-04-17T17:47:12.355Z,4.72
2023-04-17T17:49:39.553Z,5.25
2023-04-17T17:52:07.065Z,4.72
2023-04-17T17:54:37.862Z,5.00
2023-04-17T17:57:06.405Z,5.30
2023-04-17T17:59:34.083Z,4.90
2023-04-17T18:02:01.960Z,4.65
2023-04-17T18:04:30.033Z,4.40
2023-04-17T18:06:57.171Z,4.47
2023-04-17T18:09:24.409Z,4.10
2023-04-17T18:11:51.358Z,4.03
2023-04-17T18:14:18.794Z,4.38
2023-04-17T18:16:46.057Z,5.05
2023-04-17T18:19:13.477Z,4.70
2023-04-17T18:21:40.559Z,4.65
2023-04-17T18:24:08.085Z,4.63
2023-04-17T18:26:35.433Z,5.30
2023-04-17T18:29:03.083Z,5.18
2023-04-17T18:31:30.497Z,5.00
2023-04-17T18:34:02.378Z,5.38
2023-04-17T18:36:29.836Z,5.13
2023-04-17T18:38:57.483Z,5.63
2023-04-17T18:41:26.340Z,4.90
2023-04-17T18:43:53.655Z,5.35
2023-04-17T18:46:22.294Z,5.55
2023-04-17T18:48:49.763Z,5.93
2023-04-17T18:51:17.521Z,5.55
2023-04-17T18:53:44.979Z,5.82
2023-04-17T18:56:15.750Z,5.65
2023-04-17T18:58:43.707Z,6.43
2023-04-17T19:01:11.060Z,6.35
2023-04-17T19:03:38.772Z,6.07
2023-04-17T19:06:06.745Z,6.40
2023-04-17T19:08:35.008Z,6.65
2023-04-17T19:11:02.198Z,5.63
2023-04-17T19:13:29.513Z,6.03
2023-04-17T19:15:56.540Z,5.50
2023-04-17T19:18:24.104Z,5.35
2023-04-17T19:20:51.051Z,5.28
2023-04-17T19:23:19.083Z,5.38
2023-04-17T19:25:54.187Z,5.45
2023-04-17T19:28:22.679Z,5.00
2023-04-17T19:30:49.861Z,5.78
2023-04-17T19:33:18.667Z,5.53
2023-04-17T19:35:46.036Z,4.97
2023-04-17T19:38:15.431Z,5.65
2023-04-17T19:40:47.084Z,5.68
2023-04-17T19:43:14.627Z,6.18
2023-04-17T19:45:42.260Z,5.55
2023-04-17T19:48:09.749Z,6.40
2023-04-17T19:50:36.719Z,6.47
2023-04-17T19:53:03.945Z,6.22
2023-04-17T19:55:31.417Z,6.53
2023-04-17T19:57:59.004Z,7.82
2023-04-17T20:00:26.093Z,6.80
2023-04-17T20:02:54.137Z,7.20
2023-04-17T20:05:21.427Z,7.78
2023-04-17T20:07:48.582Z,7.07
2023-04-17T20:10:16.910Z,7.90
2023-04-17T20:12:44.327Z,7.22
2023-04-17T20:15:11.901Z,7.07
2023-04-17T20:17:39.271Z,6.78
2023-04-17T20:20:06.873Z,7.97
2023-04-17T20:22:34.016Z,7.75
2023-04-17T20:25:00.936Z,7.10
2023-04-17T20:27:28.308Z,7.50
2023-04-17T20:29:55.350Z,7.72
2023-04-17T20:32:23.263Z,8.00
2023-04-17T20:34:50.548Z,8.90
2023-04-17T20:37:17.998Z,7.90
2023-04-17T20:39:44.890Z,8.30
2023-04-17T20:42:12.385Z,8.30
2023-04-17T20:44:39.682Z,8.27
2023-04-17T20:47:07.061Z,8.20
2023-04-17T20:49:34.290Z,9.57
2023-04-17T20:52:03.095Z,7.93
2023-04-17T20:54:30.532Z,8.23
2023-04-17T20:56:58.094Z,8.45
2023-04-17T20:59:25.195Z,8.80
2023-04-17T21:01:52.779Z,8.40
2023-04-17T21:04:20.290Z,8.45
2023-04-17T21:06:47.560Z,8.45
2023-04-17T21:09:16.501Z,8.43
2023-04-17T21:11:43.926Z,8.60
2023-04-17T21:14:13.780Z,8.57
2023-04-17T21:16:44.394Z,8.20
2023-04-17T21:19:12.053Z,9.18
2023-04-17T21:21:39.465Z,9.20
2023-04-17T21:24:06.695Z,9.10
2023-04-17T21:26:33.965Z,9.63
2023-04-17T21:29:00.971Z,9.32
2023-04-17T21:31:28.609Z,9.63
2023-04-17T21:33:55.497Z,9.80
2023-04-17T21:36:23.091Z,8.98
2023-04-17T21:38:50.016Z,9.93
2023-04-17T21:41:17.232Z,9.43
2023-04-17T21:43:44.199Z,9.05
2023-04-17T21:46:12.032Z,9.50
2023-04-17T21:48:39.520Z,10.85
2023-04-17T21:51:07.004Z,9.57
2023-04-17T21:53:36.613Z,9.73
2023-04-17T21:56:06.745Z,9.93
2023-04-17T21:58:34.210Z,11.25
2023-04-17T22:01:01.573Z,10.85
2023-04-17T22:03:28.612Z,10.90
2023-04-17T22:05:57.429Z,10.80
2023-04-17T22:08:24.771Z,10.13
2023-04-17T22:10:52.531Z,11.00
2023-04-17T22:13:19.862Z,10.88
2023-04-17T22:15:48.108Z,11.05
2023-04-17T22:18:15.385Z,11.15
2023-04-17T22:20:43.051Z,11.88
2023-04-17T22:23:09.943Z,11.75
2023-04-17T22:25:37.298Z,13.18
2023-04-17T22:28:04.195Z,13.27
2023-04-17T22:30:31.737Z,12.73
2023-04-17T22:32:58.724Z,11.98
2023-04-17T22:35:26.945Z,11.40
2023-04-17T22:37:53.842Z,11.45
2023-04-17T22:44:40.590Z,11.93
2023-04-17T22:47:08.304Z,12.77
2023-04-17T22:49:38.101Z,12.05
2023-04-17T22:52:06.399Z,13.07
2023-04-17T22:54:34.451Z,12.68
2023-04-17T22:57:04.721Z,12.13
2023-04-17T22:59:31.730Z,12.98
2023-04-17T23:01:59.125Z,13.68
2023-04-17T23:04:26.264Z,14.80
2023-04-17T23:06:53.723Z,14.02
2023-04-17T23:10:17.421Z,13.07
2023-04-17T23:13:03.321Z,13.25
2023-04-17T23:15:30.693Z,13.07
2023-04-17T23:17:57.813Z,14.02
2023-04-17T23:20:25.140Z,15.38
2023-04-17T23:22:53.098Z,14.13
2023-04-17T23:25:20.125Z,14.85
2023-04-17T23:27:47.273Z,14.15
2023-04-17T23:30:14.956Z,13.90
2023-04-17T23:32:43.271Z,15.40
2023-04-17T23:35:10.340Z,14.80
2023-04-17T23:37:37.561Z,14.68
2023-04-17T23:40:07.655Z,15.10
2023-04-17T23:42:34.938Z,15.70
2023-04-17T23:45:01.845Z,14.98
2023-04-17T23:47:29.968Z,14.85
2023-04-17T23:49:56.954Z,14.60
2023-04-17T23:52:24.363Z,14.95
2023-04-17T23:54:51.403Z,14.50
2023-04-17T23:57:18.565Z,14.27
2023-04-17T23:59:45.670Z,13.65
